createdAt,value
2019-04-26T00:00:10.199Z,95250.30
2019-04-26T00:02:43.925Z,95246.88
2019-04-26T00:05:12.797Z,95249.88
2019-04-26T00:07:42.188Z,95246.09
2019-04-26T00:10:16.054Z,95243.55
2019-04-26T00:12:49.182Z,95241.88
2019-04-26T00:15:34.449Z,95244.87
2019-04-26T00:18:05.130Z,95242.76
2019-04-26T00:20:33.668Z,95242.80
2019-04-26T00:23:02.276Z,95235.59
2019-04-26T00:25:30.885Z,95244.09
2019-04-26T00:27:59.431Z,95241.97
2019-04-26T00:30:28.039Z,95245.81
2019-04-26T00:32:56.686Z,95242.86
2019-04-26T00:35:25.218Z,95242.47
2019-04-26T00:37:53.848Z,95237.80
2019-04-26T00:40:22.539Z,95237.41
2019-04-26T00:42:52.095Z,95238.64
2019-04-26T00:45:22.939Z,95242.52
2019-04-26T00:47:52.508Z,95232.74
2019-04-26T00:50:21.426Z,95232.31
2019-04-26T00:52:51.813Z,95235.31
2019-04-26T00:55:21.981Z,95233.19
2019-04-26T00:57:51.513Z,95229.41
2019-04-26T01:00:21.593Z,95228.57
2019-04-26T01:02:52.117Z,95232.01
2019-04-26T01:05:21.218Z,95230.34
2019-04-26T01:07:51.405Z,95229.47
2019-04-26T01:10:19.973Z,95223.52
2019-04-26T01:12:48.615Z,95226.11
2019-04-26T01:15:19.862Z,95219.34
2019-04-26T01:17:47.637Z,95213.40
2019-04-26T01:20:18.875Z,95205.75
2019-04-26T01:22:51.081Z,95206.63
2019-04-26T01:25:31.522Z,95204.08
2019-04-26T01:28:00.935Z,95200.64
2019-04-26T01:30:32.447Z,95202.39
2019-04-26T01:33:03.258Z,95196.45
2019-04-26T01:35:32.172Z,95194.35
2019-04-26T01:38:03.757Z,95193.52
2019-04-26T01:40:34.008Z,95191.80
2019-04-26T01:43:21.569Z,95192.23
2019-04-26T01:46:07.797Z,95191.36
2019-04-26T01:48:58.737Z,95188.41
2019-04-26T01:51:41.927Z,95187.14
2019-04-26T01:54:13.455Z,95188.02
2019-04-26T01:56:42.768Z,95186.30
2019-04-26T01:59:14.288Z,95183.79
2019-04-26T02:01:47.795Z,95187.62
2019-04-26T02:04:16.531Z,95184.67
2019-04-26T02:06:45.138Z,95181.73
2019-04-26T02:09:14.120Z,95178.73
2019-04-26T02:11:42.836Z,95182.61
2019-04-26T02:14:11.550Z,95182.62
2019-04-26T02:16:41.170Z,95179.67
2019-04-26T02:19:09.788Z,95179.71
2019-04-26T02:21:46.650Z,95177.16
2019-04-26T02:24:30.127Z,95165.28
2019-04-26T02:27:01.576Z,95170.38
2019-04-26T02:29:30.434Z,95165.72
2019-04-26T02:32:02.176Z,95169.11
2019-04-26T02:34:37.175Z,95160.66
2019-04-26T02:37:07.431Z,95159.40
2019-04-26T02:39:38.941Z,95156.89
2019-04-26T02:42:19.388Z,95151.79
2019-04-26T02:44:58.144Z,95150.55
2019-04-26T02:47:42.922Z,95140.80
2019-04-26T02:50:36.569Z,95138.68
2019-04-26T02:53:31.646Z,95142.55
2019-04-26T02:56:28.234Z,95137.02
2019-04-26T02:59:00.277Z,95137.05
2019-04-26T03:01:31.793Z,95134.54
2019-04-26T03:04:00.413Z,95135.38
2019-04-26T03:06:34.245Z,95141.80
2019-04-26T03:09:07.151Z,95132.88
2019-04-26T03:11:50.622Z,95135.82
2019-04-26T03:14:21.487Z,95132.43
2019-04-26T03:17:09.501Z,95133.30
2019-04-26T03:20:00.799Z,95135.45
2019-04-26T03:22:42.560Z,95129.95
2019-04-26T03:25:35.210Z,95128.69
2019-04-26T03:28:25.506Z,95133.81
2019-04-26T03:31:03.452Z,95130.44
2019-04-26T03:33:53.968Z,95133.02
2019-04-26T03:36:44.270Z,95131.75
2019-04-26T03:39:20.186Z,95129.23
2019-04-26T03:42:11.551Z,95126.25
2019-04-26T03:44:59.396Z,95128.39
2019-04-26T03:47:35.614Z,95118.60
2019-04-26T03:50:15.610Z,95116.89
2019-04-26T03:52:57.011Z,95109.24
2019-04-26T03:55:30.168Z,95106.26
2019-04-26T03:58:15.558Z,95105.82
2019-04-26T04:00:56.593Z,95102.39
2019-04-26T04:03:32.494Z,95100.25
2019-04-26T04:06:03.745Z,95104.91
2019-04-26T04:08:56.260Z,95097.66
2019-04-26T04:11:44.319Z,95093.79
2019-04-26T04:14:30.606Z,95096.73
2019-04-26T04:17:09.361Z,95089.00
2019-04-26T04:19:59.225Z,95089.83
2019-04-26T04:22:33.526Z,95086.35
2019-04-26T04:25:05.324Z,95089.28
2019-04-26T04:27:47.284Z,95088.39
2019-04-26T04:30:35.227Z,95085.80
2019-04-26T04:33:13.122Z,95091.23
2019-04-26T04:35:46.084Z,95083.92
2019-04-26T04:38:34.177Z,95086.41
2019-04-26T04:41:16.297Z,95079.94
2019-04-26T04:43:53.263Z,95078.60
2019-04-26T04:47:03.803Z,95080.60
2019-04-26T04:49:59.400Z,95079.18
2019-04-26T04:52:30.914Z,95071.66
2019-04-26T04:55:14.717Z,95070.05
2019-04-26T04:57:54.522Z,95071.42
2019-04-26T05:00:35.674Z,95071.17
2019-04-26T05:03:36.131Z,95070.56
2019-04-26T05:06:36.451Z,95070.36
2019-04-26T05:09:10.720Z,95065.81
2019-04-26T05:11:51.930Z,95070.26
2019-04-26T05:14:35.300Z,95065.66
2019-04-26T05:17:35.231Z,95073.23
2019-04-26T05:20:23.276Z,95072.69
2019-04-26T05:23:15.928Z,95072.77
2019-04-26T05:25:58.168Z,95066.44
2019-04-26T05:28:37.082Z,95063.89
2019-04-26T05:31:40.435Z,95061.50
2019-04-26T05:34:16.782Z,95056.67
2019-04-26T05:36:54.782Z,95052.14
2019-04-26T05:39:29.376Z,95048.91
2019-04-26T05:42:14.174Z,95042.94
2019-04-26T05:45:18.867Z,95044.46
2019-04-26T05:48:20.472Z,95047.50
2019-04-26T05:51:29.086Z,95050.41
2019-04-26T05:54:10.846Z,95044.83
2019-04-26T05:56:51.130Z,95033.09
2019-04-26T05:59:26.301Z,95031.66
2019-04-26T06:02:18.382Z,95032.79
2019-04-26T06:05:23.220Z,95028.81
2019-04-26T06:08:38.776Z,95028.28
2019-04-26T06:11:11.965Z,95022.75
2019-04-26T06:14:07.191Z,95024.30
2019-04-26T06:17:05.867Z,95024.73
2019-04-26T06:20:22.821Z,95017.58
2019-04-26T06:22:59.666Z,95019.94
2019-04-26T06:25:35.825Z,95021.86
2019-04-26T06:28:07.341Z,95019.15
2019-04-26T06:30:51.667Z,95013.52
2019-04-26T06:33:26.150Z,95010.84
2019-04-26T06:35:57.446Z,95007.09
2019-04-26T06:38:44.043Z,95005.00
2019-04-26T06:41:40.032Z,94998.02
2019-04-26T06:44:18.988Z,94996.12
2019-04-26T06:46:57.790Z,94991.53
2019-04-26T06:49:55.144Z,94988.96
2019-04-26T06:52:26.777Z,94989.16
2019-04-26T06:55:02.233Z,94993.27
2019-04-26T06:58:05.659Z,94979.66
2019-04-26T07:00:47.503Z,94983.39
2019-04-26T07:03:21.862Z,94972.13
2019-04-26T07:06:02.558Z,94976.28
2019-04-26T07:08:37.140Z,94977.00
2019-04-26T07:11:25.252Z,94976.13
2019-04-26T07:14:25.294Z,94971.33
2019-04-26T07:17:12.216Z,94979.41
2019-04-26T07:20:04.836Z,94972.29
2019-04-26T07:23:07.963Z,94975.55
2019-04-26T07:26:03.870Z,94970.75
2019-04-26T07:28:48.833Z,94969.00
2019-04-26T07:31:29.003Z,94977.51
2019-04-26T07:34:18.632Z,94977.07
2019-04-26T07:36:53.532Z,94974.05
2019-04-26T07:39:47.716Z,94969.77
2019-04-26T07:42:54.121Z,94975.11
2019-04-26T07:45:41.811Z,94971.84
2019-04-26T07:48:29.471Z,94976.12
2019-04-26T07:51:28.534Z,94968.59
2019-04-26T07:54:19.348Z,94972.58
2019-04-26T07:57:13.434Z,94966.48
2019-04-26T08:00:20.255Z,94968.36
2019-04-26T08:02:56.201Z,94970.02
2019-04-26T08:05:38.303Z,94970.30
2019-04-26T08:08:09.019Z,94963.25
2019-04-26T08:10:40.845Z,94960.42
2019-04-26T08:13:15.517Z,94971.34
2019-04-26T08:15:57.580Z,94960.20
2019-04-26T08:18:48.340Z,94969.77
2019-04-26T08:21:21.483Z,94974.81
2019-04-26T08:23:57.800Z,94966.44
2019-04-26T08:26:29.549Z,94970.58
2019-04-26T08:29:01.648Z,94971.03
2019-04-26T08:31:33.135Z,94980.52
2019-04-26T08:34:07.505Z,94975.09
2019-04-26T08:36:41.568Z,94971.11
2019-04-26T08:39:23.386Z,94968.72
2019-04-26T08:41:57.206Z,94971.13
2019-04-26T08:44:39.090Z,94964.50
2019-04-26T08:47:16.779Z,94956.45
2019-04-26T08:49:49.373Z,94964.99
2019-04-26T08:52:22.428Z,94960.25
2019-04-26T08:54:54.516Z,94960.48
2019-04-26T08:57:26.320Z,94965.84
2019-04-26T08:59:57.907Z,94956.27
2019-04-26T09:02:33.655Z,94965.86
2019-04-26T09:05:27.623Z,94963.68
2019-04-26T09:07:59.220Z,94970.41
2019-04-26T09:10:32.864Z,94962.97
2019-04-26T09:13:03.827Z,94963.50
2019-04-26T09:15:51.647Z,94956.81
2019-04-26T09:18:20.344Z,94956.84
2019-04-26T09:20:48.918Z,94951.28
2019-04-26T09:23:39.591Z,94956.75
2019-04-26T09:26:08.613Z,94949.17
2019-04-26T09:28:52.977Z,94957.99
2019-04-26T09:31:22.129Z,94952.44
2019-04-26T09:33:55.113Z,94946.94
2019-04-26T09:36:23.895Z,94940.41
2019-04-26T09:38:52.439Z,94944.23
2019-04-26T09:41:21.121Z,94945.69
2019-04-26T09:43:51.308Z,94941.46
2019-04-26T09:46:27.530Z,94936.18
2019-04-26T09:49:07.071Z,94932.78
2019-04-26T09:51:39.057Z,94939.08
2019-04-26T09:54:05.439Z,94928.10
2019-04-26T09:56:34.102Z,94920.86
2019-04-26T09:59:05.706Z,94920.66
2019-04-26T10:01:33.995Z,94914.76
2019-04-26T10:04:02.615Z,94920.16
2019-04-26T10:06:31.241Z,94913.11
2019-04-26T10:08:59.857Z,94908.11
2019-04-26T10:11:30.124Z,94905.19
2019-04-26T10:14:00.384Z,94903.34
2019-04-26T10:16:33.598Z,94897.63
2019-04-26T10:19:02.616Z,94897.00
2019-04-26T10:21:31.151Z,94906.56
2019-04-26T10:23:59.771Z,94896.41
2019-04-26T10:26:29.839Z,94895.08
2019-04-26T10:28:59.931Z,94891.81
2019-04-26T10:31:28.542Z,94893.43
2019-04-26T10:33:57.087Z,94887.94
2019-04-26T10:36:29.692Z,94889.93
2019-04-26T10:38:58.334Z,94892.77
2019-04-26T10:41:26.848Z,94887.09
2019-04-26T10:43:55.493Z,94888.11
2019-04-26T10:46:24.466Z,94885.45
2019-04-26T10:48:54.553Z,94893.62
2019-04-26T10:51:25.105Z,94890.84
2019-04-26T10:54:06.064Z,94886.98
2019-04-26T10:56:42.391Z,94883.66
2019-04-26T10:59:28.052Z,94897.99
2019-04-26T11:01:56.832Z,94890.80
2019-04-26T11:04:28.171Z,94883.50
2019-04-26T11:06:58.137Z,94886.33
2019-04-26T11:09:27.175Z,94880.95
2019-04-26T11:11:55.806Z,94873.02
2019-04-26T11:14:24.515Z,94891.55
2019-04-26T11:16:53.925Z,94884.72
2019-04-26T11:19:22.569Z,94874.50
2019-04-26T11:21:54.875Z,94872.69
2019-04-26T11:24:21.484Z,94866.66
2019-04-26T11:26:50.132Z,94873.63
2019-04-26T11:29:18.784Z,94865.20
2019-04-26T11:31:49.083Z,94865.91
2019-04-26T11:34:19.179Z,94850.96
2019-04-26T11:36:48.122Z,94854.67
2019-04-26T11:39:16.908Z,94850.36
2019-04-26T11:41:45.514Z,94850.96
2019-04-26T11:44:14.318Z,94851.16
2019-04-26T11:46:44.976Z,94852.92
2019-04-26T11:49:13.135Z,94851.53
2019-04-26T11:51:41.743Z,94846.64
2019-04-26T11:54:10.383Z,94849.16
2019-04-26T11:56:39.039Z,94837.26
2019-04-26T11:59:07.677Z,94854.38
2019-04-26T12:01:36.668Z,94850.61
2019-04-26T12:04:08.488Z,94846.10
2019-04-26T12:06:44.549Z,94855.08
2019-04-26T12:09:31.132Z,94841.96
2019-04-26T12:12:04.780Z,94832.68
2019-04-26T12:14:33.456Z,94841.55
2019-04-26T12:17:01.321Z,94839.80
2019-04-26T12:19:30.250Z,94836.41
2019-04-26T12:21:58.887Z,94838.00
2019-04-26T12:24:29.603Z,94841.36
2019-04-26T12:26:57.861Z,94831.05
2019-04-26T12:29:26.468Z,94835.02
2019-04-26T12:31:55.104Z,94836.27
2019-04-26T12:34:23.725Z,94833.84
2019-04-26T12:36:52.346Z,94836.73
2019-04-26T12:39:21.519Z,94839.14
2019-04-26T12:41:50.141Z,94843.22
2019-04-26T12:44:18.813Z,94835.95
2019-04-26T12:47:07.129Z,94831.66
2019-04-26T12:49:35.748Z,94831.31
2019-04-26T12:52:04.369Z,94824.99
2019-04-26T12:54:33.016Z,94823.94
2019-04-26T12:57:05.744Z,94817.63
2019-04-26T12:59:43.516Z,94809.65
2019-04-26T13:02:05.909Z,94811.07
2019-04-26T13:04:36.260Z,94805.58
2019-04-26T13:07:23.444Z,94814.41
2019-04-26T13:10:02.227Z,94805.50
2019-04-26T13:12:32.457Z,94810.28
2019-04-26T13:15:22.055Z,94804.47
2019-04-26T13:17:52.615Z,94805.78
2019-04-26T13:20:24.465Z,94801.77
2019-04-26T13:22:54.277Z,94812.36
2019-04-26T13:25:26.459Z,94812.26
2019-04-26T13:27:52.049Z,94804.28
2019-04-26T13:30:32.421Z,94811.69
2019-04-26T13:32:53.482Z,94808.09
2019-04-26T13:35:21.365Z,94808.09
2019-04-26T13:37:50.001Z,94801.56
2019-04-26T13:40:19.286Z,94800.27
2019-04-26T13:42:51.438Z,94792.73
2019-04-26T13:45:20.119Z,94790.23
2019-04-26T13:47:52.862Z,94780.70
2019-04-26T13:50:26.694Z,94771.20
2019-04-26T13:52:53.465Z,94773.81
2019-04-26T13:55:25.424Z,94770.12
2019-04-26T13:57:52.515Z,94769.63
2019-04-26T14:00:23.134Z,94770.34
2019-04-26T14:02:51.712Z,94766.79
2019-04-26T14:05:20.403Z,94776.66
2019-04-26T14:07:48.957Z,94759.88
2019-04-26T14:10:17.745Z,94764.17
2019-04-26T14:12:50.034Z,94763.57
2019-04-26T14:15:17.462Z,94764.77
2019-04-26T14:17:46.032Z,94767.95
2019-04-26T14:20:15.090Z,94767.73
2019-04-26T14:22:46.866Z,94768.66
2019-04-26T14:25:17.089Z,94768.55
2019-04-26T14:27:51.509Z,94758.56
2019-04-26T14:30:20.475Z,94765.81
2019-04-26T14:32:49.063Z,94768.92
2019-04-26T14:35:17.638Z,94766.64
2019-04-26T14:37:49.774Z,94769.27
2019-04-26T14:40:17.681Z,94770.09
2019-04-26T14:42:48.587Z,94764.85
2019-04-26T14:45:23.828Z,94768.66
2019-04-26T14:47:47.875Z,94765.93
2019-04-26T14:50:16.641Z,94764.16
2019-04-26T14:52:45.195Z,94778.67
2019-04-26T14:55:16.582Z,94782.98
2019-04-26T14:57:46.734Z,94787.84
2019-04-26T15:00:16.799Z,94787.15
2019-04-26T15:03:03.268Z,94788.20
2019-04-26T15:05:38.297Z,94787.49
2019-04-26T15:08:09.537Z,94802.14
2019-04-26T15:10:45.926Z,94795.63
2019-04-26T15:13:15.328Z,94785.75
2019-04-26T15:15:38.035Z,94788.46
2019-04-26T15:18:06.653Z,94786.20
2019-04-26T15:20:35.268Z,94781.91
2019-04-26T15:23:03.917Z,94783.11
2019-04-26T15:25:33.593Z,94785.13
2019-04-26T15:28:02.568Z,94781.66
2019-04-26T15:30:34.643Z,94776.69
2019-04-26T15:33:03.164Z,94789.40
2019-04-26T15:35:35.603Z,94788.31
2019-04-26T15:38:03.704Z,94776.89
2019-04-26T15:40:49.225Z,94786.95
2019-04-26T15:43:28.236Z,94786.23
2019-04-26T15:46:02.327Z,94787.17
2019-04-26T15:48:42.993Z,94784.77
2019-04-26T15:51:13.468Z,94786.86
2019-04-26T15:53:44.837Z,94781.02
2019-04-26T15:56:14.622Z,94780.30
2019-04-26T15:58:47.920Z,94779.43
2019-04-26T16:01:13.921Z,94782.27
2019-04-26T16:03:44.585Z,94774.54
2019-04-26T16:06:13.106Z,94776.42
2019-04-26T16:08:43.763Z,94771.89
2019-04-26T16:11:12.492Z,94771.64
2019-04-26T16:13:45.103Z,94771.02
2019-04-26T16:16:12.600Z,94779.30
2019-04-26T16:18:43.099Z,94778.81
2019-04-26T16:21:17.675Z,94780.10
2019-04-26T16:23:51.148Z,94778.90
2019-04-26T16:26:15.318Z,94783.49
2019-04-26T16:28:48.642Z,94774.59
2019-04-26T16:31:21.704Z,94777.53
2019-04-26T16:36:36.649Z,94780.70
2019-04-26T16:39:03.291Z,94772.50
2019-04-26T16:41:37.743Z,94772.48
2019-04-26T16:44:02.780Z,94773.28
2019-04-26T16:46:33.314Z,94775.94
2019-04-26T16:51:34.107Z,94770.30
2019-04-26T16:54:07.433Z,94770.63
2019-04-26T16:56:33.649Z,94771.87
2019-04-26T16:59:03.233Z,94776.55
2019-04-26T17:00:46.861Z,94775.09
2019-04-26T17:01:33.394Z,94774.36
2019-04-26T17:04:04.161Z,94774.42
2019-04-26T17:06:32.494Z,94774.01
2019-04-26T17:09:05.016Z,94772.20
2019-04-26T17:11:35.050Z,94770.38
2019-04-26T17:14:04.909Z,94769.49
2019-04-26T17:16:34.709Z,94776.06
2019-04-26T17:19:02.497Z,94769.52
2019-04-26T17:21:34.594Z,94770.75
2019-04-26T17:24:05.885Z,94776.01
2019-04-26T17:26:36.748Z,94774.50
2019-04-26T17:29:05.646Z,94778.80
2019-04-26T17:31:34.338Z,94777.60
2019-04-26T17:34:03.550Z,94781.30
2019-04-26T17:36:34.527Z,94780.59
2019-04-26T17:39:04.531Z,94781.20
2019-04-26T17:41:33.431Z,94780.58
2019-04-26T17:44:08.026Z,94783.04
2019-04-26T17:46:32.619Z,94781.23
2019-04-26T17:49:01.591Z,94780.78
2019-04-26T17:51:35.224Z,94780.70
2019-04-26T17:54:21.045Z,94788.89
2019-04-26T17:56:35.359Z,94787.41
2019-04-26T17:59:03.278Z,94781.09
2019-04-26T18:01:42.931Z,94787.80
2019-04-26T18:04:02.284Z,94795.13
2019-04-26T18:06:31.062Z,94793.25
2019-04-26T18:08:59.696Z,94798.13
2019-04-26T18:11:28.308Z,94796.07
2019-04-26T18:13:56.969Z,94801.80
2019-04-26T18:16:29.374Z,94800.02
2019-04-26T18:18:58.017Z,94802.39
2019-04-26T18:21:28.269Z,94810.13
2019-04-26T18:23:57.289Z,94813.25
2019-04-26T18:26:26.173Z,94817.47
2019-04-26T18:28:55.344Z,94817.16
2019-04-26T18:31:28.614Z,94819.84
2019-04-26T18:34:00.596Z,94822.93
2019-04-26T18:36:27.753Z,94823.36
2019-04-26T18:38:55.465Z,94826.81
2019-04-26T18:41:28.713Z,94822.05
2019-04-26T18:43:59.764Z,94832.38
2019-04-26T18:46:35.694Z,94830.81
2019-04-26T18:49:04.356Z,94832.25
2019-04-26T18:51:33.445Z,94836.38
2019-04-26T18:54:09.244Z,94832.44
2019-04-26T18:56:40.455Z,94823.39
2019-04-26T18:59:11.759Z,94832.23
2019-04-26T19:01:41.806Z,94833.67
2019-04-26T19:04:13.094Z,94839.32
2019-04-26T19:06:42.185Z,94837.20
2019-04-26T19:09:10.111Z,94841.68
2019-04-26T19:11:48.631Z,94836.44
2019-04-26T19:14:32.292Z,94843.30
2019-04-26T19:17:14.461Z,94841.53
2019-04-26T19:20:02.088Z,94836.91
2019-04-26T19:22:32.225Z,94839.56
2019-04-26T19:25:02.045Z,94838.19
2019-04-26T19:27:33.276Z,94838.88
2019-04-26T19:30:08.690Z,94837.87
2019-04-26T19:32:35.413Z,94833.81
2019-04-26T19:35:07.602Z,94835.84
2019-04-26T19:37:36.759Z,94832.66
2019-04-26T19:40:08.865Z,94836.47
2019-04-26T19:42:35.547Z,94837.52
2019-04-26T19:45:14.208Z,94834.02
2019-04-26T19:47:51.960Z,94831.34
2019-04-26T19:50:25.531Z,94832.02
2019-04-26T19:53:01.863Z,94829.12
2019-04-26T19:55:41.811Z,94828.94
2019-04-26T19:58:16.694Z,94823.52
2019-04-26T20:00:46.618Z,94831.94
2019-04-26T20:03:16.738Z,94825.84
2019-04-26T20:05:44.315Z,94828.17
2019-04-26T20:08:13.308Z,94829.98
2019-04-26T20:10:45.364Z,94821.61
2019-04-26T20:13:15.075Z,94822.25
2019-04-26T20:15:42.729Z,94824.00
2019-04-26T20:18:12.269Z,94824.00
2019-04-26T20:20:41.397Z,94830.91
2019-04-26T20:23:12.253Z,94827.19
2019-04-26T20:25:40.776Z,94824.92
2019-04-26T20:28:09.386Z,94828.75
2019-04-26T20:30:48.401Z,94825.02
2019-04-26T20:33:17.289Z,94824.65
2019-04-26T20:35:45.863Z,94830.70
2019-04-26T20:38:14.411Z,94830.95
2019-04-26T20:40:43.422Z,94827.28
2019-04-26T20:43:23.807Z,94829.95
2019-04-26T20:46:07.983Z,94823.61
2019-04-26T20:48:14.190Z,94829.08
2019-04-26T20:50:44.479Z,94829.42
2019-04-26T20:53:13.093Z,94833.41
2019-04-26T20:55:43.411Z,94828.44
2019-04-26T20:58:12.031Z,94830.12
2019-04-26T21:00:53.693Z,94826.06
2019-04-26T21:03:23.170Z,94827.66
2019-04-26T21:05:46.216Z,94820.94
2019-04-26T21:08:12.551Z,94820.88
2019-04-26T21:10:41.796Z,94821.86
2019-04-26T21:13:12.214Z,94824.30
2019-04-26T21:15:53.391Z,94827.52
2019-04-26T21:18:12.339Z,94822.20
2019-04-26T21:20:42.515Z,94818.66
2019-04-26T21:23:13.246Z,94819.67
2019-04-26T21:25:43.502Z,94818.20
2019-04-26T21:28:33.026Z,94815.84
2019-04-26T21:31:18.214Z,94821.97
2019-04-26T21:33:48.466Z,94824.40
2019-04-26T21:36:18.687Z,94819.66
2019-04-26T21:38:59.357Z,94822.05
2019-04-26T21:41:35.708Z,94823.19
2019-04-26T21:44:07.575Z,94816.97
2019-04-26T21:46:35.779Z,94815.20
2019-04-26T21:49:04.405Z,94816.75
2019-04-26T21:51:34.022Z,94821.66
2019-04-26T21:54:03.752Z,94828.14
2019-04-26T21:56:33.746Z,94822.66
2019-04-26T21:59:03.684Z,94825.45
2019-04-26T22:01:33.122Z,94822.71
2019-04-26T22:04:03.438Z,94823.83
2019-04-26T22:06:33.450Z,94822.75
2019-04-26T22:09:05.169Z,94822.54
2019-04-26T22:11:34.162Z,94828.73
2019-04-26T22:14:13.178Z,94826.27
2019-04-26T22:16:41.825Z,94823.37
2019-04-26T22:19:16.057Z,94830.13
2019-04-26T22:22:05.797Z,94824.49
2019-04-26T22:24:37.442Z,94821.92
2019-04-26T22:27:05.993Z,94823.70
2019-04-26T22:29:34.595Z,94826.36
2019-04-26T22:32:03.744Z,94828.55
2019-04-26T22:34:32.874Z,94826.48
2019-04-26T22:37:09.879Z,94824.86
2019-04-26T22:39:39.646Z,94828.76
2019-04-26T22:42:03.045Z,94822.33
2019-04-26T22:44:34.618Z,94825.40
2019-04-26T22:47:08.346Z,94828.63
2019-04-26T22:49:41.812Z,94832.30
2019-04-26T22:52:11.109Z,94827.73
2019-04-26T22:54:42.255Z,94826.15
2019-04-26T22:57:12.601Z,94823.39
2019-04-26T22:59:43.305Z,94824.84
2019-04-26T23:02:11.005Z,94829.73
2019-04-26T23:04:39.911Z,94830.33
2019-04-26T23:07:09.445Z,94823.67
2019-04-26T23:09:37.989Z,94814.38
2019-04-26T23:12:27.955Z,94819.22
2019-04-26T23:15:13.638Z,94811.66
2019-04-26T23:17:59.239Z,94808.30
2019-04-26T23:20:37.849Z,94808.79
2019-04-26T23:23:08.590Z,94809.35
2019-04-26T23:25:37.533Z,94810.37
2019-04-26T23:28:06.149Z,94807.88
2019-04-26T23:30:34.862Z,94811.31
2019-04-26T23:33:03.843Z,94814.03
2019-04-26T23:35:43.078Z,94813.64
2019-04-26T23:38:07.171Z,94814.44
2019-04-26T23:40:35.718Z,94822.67
2019-04-26T23:43:04.589Z,94818.66
2019-04-26T23:45:33.427Z,94822.17
2019-04-26T23:48:03.528Z,94830.81
2019-04-26T23:50:34.098Z,94834.31
2019-04-26T23:53:03.143Z,94831.09
2019-04-26T23:55:31.693Z,94832.41
2019-04-26T23:58:00.274Z,94830.44
